createdAt,value
2019-05-15T00:00:39.796Z,49.51
2019-05-15T00:01:45.358Z,49.55
2019-05-15T00:02:50.754Z,49.58
2019-05-15T00:03:58.457Z,49.60
2019-05-15T00:05:04.481Z,49.63
2019-05-15T00:06:10.248Z,49.66
2019-05-15T00:07:15.214Z,49.66
2019-05-15T00:08:20.762Z,49.72
2019-05-15T00:09:25.692Z,49.78
2019-05-15T00:10:31.255Z,49.81
2019-05-15T00:11:38.777Z,49.91
2019-05-15T00:12:43.870Z,49.98
2019-05-15T00:13:49.093Z,50.05
2019-05-15T00:14:54.660Z,50.13
2019-05-15T00:15:59.899Z,50.19
2019-05-15T00:17:05.442Z,50.24
2019-05-15T00:18:10.393Z,50.28
2019-05-15T00:19:18.603Z,50.30
2019-05-15T00:20:23.550Z,50.32
2019-05-15T00:21:29.444Z,50.33
2019-05-15T00:22:34.367Z,50.31
2019-05-15T00:23:42.052Z,50.32
2019-05-15T00:24:48.848Z,50.34
2019-05-15T00:25:54.210Z,50.33
2019-05-15T00:26:59.486Z,50.30
2019-05-15T00:28:05.139Z,50.27
2019-05-15T00:29:15.846Z,50.25
2019-05-15T00:30:18.369Z,50.26
2019-05-15T00:31:23.393Z,50.35
2019-05-15T00:32:29.475Z,50.42
2019-05-15T00:33:34.745Z,50.50
2019-05-15T00:34:40.233Z,50.56
2019-05-15T00:35:45.294Z,50.61
2019-05-15T00:36:50.773Z,50.66
2019-05-15T00:37:55.738Z,50.73
2019-05-15T00:39:01.209Z,50.74
2019-05-15T00:40:08.831Z,50.76
2019-05-15T00:41:14.232Z,50.80
2019-05-15T00:42:19.572Z,50.77
2019-05-15T00:43:25.126Z,50.75
2019-05-15T00:44:30.046Z,50.74
2019-05-15T00:45:38.295Z,50.69
2019-05-15T00:46:42.563Z,50.68
2019-05-15T00:47:48.653Z,50.65
2019-05-15T00:48:54.242Z,50.64
2019-05-15T00:50:00.031Z,50.62
2019-05-15T00:51:05.339Z,50.55
2019-05-15T00:52:12.241Z,50.53
2019-05-15T00:53:19.564Z,50.50
2019-05-15T00:54:25.600Z,50.46
2019-05-15T00:55:30.907Z,50.47
2019-05-15T00:56:36.412Z,50.52
2019-05-15T00:57:41.354Z,50.59
2019-05-15T00:58:48.814Z,50.69
2019-05-15T00:59:54.067Z,50.77
2019-05-15T01:00:59.612Z,50.87
2019-05-15T01:02:04.579Z,50.99
2019-05-15T01:03:10.184Z,51.10
2019-05-15T01:04:15.393Z,51.19
2019-05-15T01:05:20.962Z,51.20
2019-05-15T01:06:28.301Z,51.22
2019-05-15T01:07:33.557Z,51.26
2019-05-15T01:08:39.442Z,51.29
2019-05-15T01:09:45.262Z,51.32
2019-05-15T01:10:50.821Z,51.35
2019-05-15T01:11:58.585Z,51.38
2019-05-15T01:13:03.501Z,51.46
2019-05-15T01:14:12.227Z,51.49
2019-05-15T01:15:18.308Z,51.54
2019-05-15T01:16:23.341Z,51.55
2019-05-15T01:17:29.069Z,51.56
2019-05-15T01:18:34.604Z,51.58
2019-05-15T01:19:39.628Z,51.57
2019-05-15T01:20:45.359Z,51.56
2019-05-15T01:21:50.291Z,51.54
2019-05-15T01:22:55.827Z,51.48
2019-05-15T01:24:00.792Z,51.51
2019-05-15T01:25:08.707Z,51.53
2019-05-15T01:26:13.432Z,51.60
2019-05-15T01:27:19.042Z,51.68
2019-05-15T01:28:24.225Z,51.74
2019-05-15T01:29:41.151Z,51.81
2019-05-15T01:30:39.031Z,51.90
2019-05-15T01:31:44.132Z,51.96
2019-05-15T01:32:49.123Z,51.99
2019-05-15T01:33:54.626Z,52.06
2019-05-15T01:35:00.448Z,52.10
2019-05-15T01:36:08.351Z,52.10
2019-05-15T01:37:12.707Z,52.13
2019-05-15T01:38:18.675Z,52.14
2019-05-15T01:39:23.912Z,52.17
2019-05-15T01:40:29.831Z,52.17
2019-05-15T01:41:35.022Z,52.20
2019-05-15T01:42:40.630Z,52.19
2019-05-15T01:43:45.980Z,52.17
2019-05-15T01:44:51.480Z,52.20
2019-05-15T01:45:58.806Z,52.20
2019-05-15T01:47:04.026Z,52.21
2019-05-15T01:48:12.889Z,52.20
2019-05-15T01:49:18.790Z,52.24
2019-05-15T01:50:23.818Z,52.24
2019-05-15T01:51:29.396Z,52.28
2019-05-15T01:52:34.311Z,52.33
2019-05-15T01:53:39.786Z,52.39
2019-05-15T01:54:44.707Z,52.42
2019-05-15T01:55:50.315Z,52.43
2019-05-15T01:56:55.221Z,52.49
2019-05-15T01:58:01.007Z,52.53
2019-05-15T01:59:06.004Z,52.57
2019-05-15T02:00:11.620Z,52.60
2019-05-15T02:01:19.123Z,52.63
2019-05-15T02:02:24.033Z,52.59
2019-05-15T02:03:29.514Z,52.53
2019-05-15T02:04:35.100Z,52.55
2019-05-15T02:05:40.482Z,52.56
2019-05-15T02:06:48.281Z,52.56
2019-05-15T02:07:52.899Z,52.51
2019-05-15T02:08:58.801Z,52.52
2019-05-15T02:10:04.495Z,52.54
2019-05-15T02:11:09.990Z,52.55
2019-05-15T02:12:15.251Z,52.56
2019-05-15T02:13:20.885Z,52.57
2019-05-15T02:14:28.315Z,52.57
2019-05-15T02:15:33.561Z,52.56
2019-05-15T02:16:39.288Z,52.55
2019-05-15T02:17:45.352Z,52.51
2019-05-15T02:18:50.252Z,52.50
2019-05-15T02:19:56.113Z,52.50
2019-05-15T02:21:02.823Z,52.49
2019-05-15T02:22:08.469Z,52.50
2019-05-15T02:23:13.599Z,52.49
2019-05-15T02:24:19.268Z,52.51
2019-05-15T02:25:24.481Z,52.54
2019-05-15T02:26:30.062Z,52.57
2019-05-15T02:27:35.015Z,52.58
2019-05-15T02:28:40.648Z,52.59
2019-05-15T02:29:45.961Z,52.64
2019-05-15T02:30:51.520Z,52.65
2019-05-15T02:31:59.304Z,52.70
2019-05-15T02:33:03.626Z,52.73
2019-05-15T02:34:10.206Z,52.77
2019-05-15T02:35:18.406Z,52.81
2019-05-15T02:36:22.503Z,52.81
2019-05-15T02:37:29.372Z,52.88
2019-05-15T02:38:35.098Z,52.91
2019-05-15T02:39:40.602Z,52.95
2019-05-15T02:40:45.607Z,53.01
2019-05-15T02:41:51.173Z,53.04
2019-05-15T02:42:58.968Z,53.06
2019-05-15T02:44:03.619Z,53.06
2019-05-15T02:45:10.303Z,53.08
2019-05-15T02:46:19.373Z,53.10
2019-05-15T02:47:23.585Z,53.12
2019-05-15T02:48:29.301Z,53.17
2019-05-15T02:49:34.672Z,53.19
2019-05-15T02:50:40.254Z,53.19
2019-05-15T02:51:45.192Z,53.20
2019-05-15T02:52:50.812Z,53.21
2019-05-15T02:53:58.382Z,53.24
2019-05-15T02:55:03.056Z,53.24
2019-05-15T02:56:09.315Z,53.24
2019-05-15T02:57:15.466Z,53.26
2019-05-15T02:58:21.781Z,53.27
2019-05-15T02:59:29.042Z,53.31
2019-05-15T03:00:43.955Z,53.36
2019-05-15T03:01:41.456Z,53.40
2019-05-15T03:02:49.665Z,53.42
2019-05-15T03:03:54.282Z,53.44
2019-05-15T03:04:59.714Z,53.47
2019-05-15T03:06:05.321Z,53.52
2019-05-15T03:07:10.537Z,53.56
2019-05-15T03:08:19.316Z,53.62
2019-05-15T03:09:22.948Z,53.65
2019-05-15T03:10:29.679Z,53.66
2019-05-15T03:11:34.864Z,53.70
2019-05-15T03:12:42.453Z,53.72
2019-05-15T03:13:50.283Z,53.74
2019-05-15T03:14:54.849Z,53.81
2019-05-15T03:16:20.413Z,53.83
2019-05-15T03:17:25.826Z,53.90
2019-05-15T03:18:31.567Z,53.94
2019-05-15T03:19:39.292Z,53.97
2019-05-15T03:20:43.761Z,53.97
2019-05-15T03:21:49.922Z,53.98
2019-05-15T03:22:55.631Z,53.99
2019-05-15T03:24:00.681Z,53.99
2019-05-15T03:25:10.336Z,54.01
2019-05-15T03:26:13.592Z,54.02
2019-05-15T03:27:19.813Z,54.03
2019-05-15T03:28:24.895Z,54.06
2019-05-15T03:29:30.820Z,54.09
2019-05-15T03:31:06.657Z,54.13
2019-05-15T03:31:59.103Z,54.14
2019-05-15T03:33:00.565Z,54.22
2019-05-15T03:34:03.053Z,54.25
2019-05-15T03:35:05.954Z,54.28
2019-05-15T03:36:13.867Z,54.29
2019-05-15T03:37:22.219Z,54.32
2019-05-15T03:38:29.704Z,54.34
2019-05-15T03:39:33.675Z,54.37
2019-05-15T03:40:39.941Z,54.42
2019-05-15T03:41:45.299Z,54.45
2019-05-15T03:42:51.369Z,54.48
2019-05-15T03:43:59.488Z,54.51
2019-05-15T03:45:03.658Z,54.51
2019-05-15T03:46:09.264Z,54.50
2019-05-15T03:47:15.796Z,54.51
2019-05-15T03:48:20.869Z,54.55
2019-05-15T03:49:29.203Z,54.58
2019-05-15T03:50:33.142Z,54.61
2019-05-15T03:51:42.479Z,54.63
2019-05-15T03:52:45.714Z,54.67
2019-05-15T03:53:51.665Z,54.70
2019-05-15T03:54:58.828Z,54.72
2019-05-15T03:56:03.942Z,54.75
2019-05-15T03:57:09.925Z,54.76
2019-05-15T03:58:20.915Z,54.80
2019-05-15T03:59:23.664Z,54.80
2019-05-15T04:00:30.183Z,54.78
2019-05-15T04:01:39.802Z,54.75
2019-05-15T04:02:42.798Z,54.77
2019-05-15T04:03:49.591Z,54.79
2019-05-15T04:04:58.059Z,54.77
2019-05-15T04:06:02.698Z,54.83
2019-05-15T04:07:09.267Z,54.85
2019-05-15T04:08:14.859Z,54.88
2019-05-15T04:09:20.609Z,54.90
2019-05-15T04:10:28.612Z,54.88
2019-05-15T04:11:33.255Z,54.92
2019-05-15T04:12:40.301Z,54.91
2019-05-15T04:13:45.693Z,54.91
2019-05-15T04:14:50.777Z,54.90
2019-05-15T04:15:59.142Z,54.88
2019-05-15T04:17:03.173Z,54.87
2019-05-15T04:18:09.340Z,54.90
2019-05-15T04:19:18.844Z,54.95
2019-05-15T04:20:23.147Z,54.93
2019-05-15T04:21:30.320Z,54.90
2019-05-15T04:22:35.804Z,54.91
2019-05-15T04:23:41.671Z,54.90
2019-05-15T04:24:49.534Z,54.87
2019-05-15T04:25:54.845Z,54.88
2019-05-15T04:27:06.104Z,54.87
2019-05-15T04:28:11.641Z,54.89
2019-05-15T04:29:19.382Z,54.91
2019-05-15T04:30:24.567Z,54.91
2019-05-15T04:31:49.800Z,54.95
2019-05-15T04:32:39.831Z,54.94
2019-05-15T04:33:44.439Z,54.90
2019-05-15T04:34:49.523Z,54.87
2019-05-15T04:35:55.019Z,54.81
2019-05-15T04:37:00.328Z,54.77
2019-05-15T04:38:09.065Z,54.68
2019-05-15T04:39:12.994Z,54.64
2019-05-15T04:40:19.439Z,54.67
2019-05-15T04:41:24.911Z,54.71
2019-05-15T04:42:30.765Z,54.77
2019-05-15T04:43:44.139Z,54.75
2019-05-15T04:44:42.941Z,54.72
2019-05-15T04:45:49.784Z,54.69
2019-05-15T04:46:55.099Z,54.75
2019-05-15T04:48:00.099Z,54.76
2019-05-15T04:49:09.021Z,54.77
2019-05-15T04:50:12.719Z,54.75
2019-05-15T04:51:19.092Z,54.70
2019-05-15T04:52:24.257Z,54.66
2019-05-15T04:53:33.163Z,54.58
2019-05-15T04:54:39.925Z,54.50
2019-05-15T04:55:44.335Z,54.45
2019-05-15T04:56:50.357Z,54.42
2019-05-15T04:57:58.992Z,54.36
2019-05-15T04:59:02.641Z,54.33
2019-05-15T05:00:09.831Z,54.32
2019-05-15T05:01:19.701Z,54.27
2019-05-15T05:02:27.064Z,54.25
2019-05-15T05:03:34.145Z,54.29
2019-05-15T05:04:38.830Z,54.26
2019-05-15T05:05:44.210Z,54.21
2019-05-15T05:06:49.742Z,54.20
2019-05-15T05:07:54.990Z,54.20
2019-05-15T05:09:00.909Z,53.89
2019-05-15T05:10:09.663Z,54.03
2019-05-15T05:11:14.121Z,53.96
2019-05-15T05:12:19.485Z,53.90
2019-05-15T05:13:28.403Z,53.86
2019-05-15T05:14:33.383Z,53.81
2019-05-15T05:16:39.548Z,53.67
2019-05-15T05:17:45.413Z,53.65
2019-05-15T05:18:50.672Z,53.58
2019-05-15T05:19:58.361Z,53.54
2019-05-15T05:21:03.625Z,53.54
2019-05-15T05:22:09.561Z,53.44
2019-05-15T05:23:14.634Z,53.39
2019-05-15T05:24:20.354Z,53.23
2019-05-15T05:25:27.842Z,53.05
2019-05-15T05:26:32.667Z,52.85
2019-05-15T05:27:38.548Z,52.63
2019-05-15T05:28:44.446Z,52.40
2019-05-15T05:29:50.095Z,52.23
2019-05-15T05:30:58.569Z,52.07
2019-05-15T05:32:02.818Z,51.91
2019-05-15T05:33:08.635Z,51.66
2019-05-15T05:34:14.069Z,51.37
2019-05-15T05:35:19.843Z,50.97
2019-05-15T05:36:25.195Z,50.45
2019-05-15T05:37:31.126Z,49.90
2019-05-15T05:38:38.471Z,49.43
2019-05-15T05:39:43.564Z,49.02
2019-05-15T05:40:49.891Z,48.73
2019-05-15T05:41:55.713Z,48.43
2019-05-15T05:43:00.722Z,48.04
2019-05-15T05:44:08.166Z,47.75
2019-05-15T05:45:13.625Z,47.46
2019-05-15T05:46:19.458Z,47.08
2019-05-15T05:47:24.391Z,46.86
2019-05-15T05:48:30.180Z,46.67
2019-05-15T05:49:35.205Z,46.44
2019-05-15T05:50:44.820Z,46.14
2019-05-15T05:51:49.862Z,45.73
2019-05-15T05:52:57.832Z,45.31
2019-05-15T05:54:02.503Z,44.90
2019-05-15T05:55:09.131Z,44.51
2019-05-15T05:56:14.230Z,43.95
2019-05-15T05:57:19.979Z,43.49
2019-05-15T05:58:25.326Z,43.09
2019-05-15T05:59:30.888Z,42.70
2019-05-15T06:00:41.824Z,42.34
2019-05-15T06:01:48.388Z,42.03
2019-05-15T06:02:53.619Z,41.77
2019-05-15T06:03:59.418Z,41.44
2019-05-15T06:05:04.495Z,41.19
2019-05-15T06:06:10.130Z,40.92
2019-05-15T06:07:15.104Z,40.60
2019-05-15T06:08:20.726Z,40.15
2019-05-15T06:09:27.832Z,39.87
2019-05-15T06:10:33.798Z,39.59
2019-05-15T06:11:38.887Z,39.20
2019-05-15T06:12:44.400Z,38.94
2019-05-15T06:13:52.509Z,38.67
2019-05-15T06:14:58.086Z,38.50
2019-05-15T06:16:03.212Z,38.27
2019-05-15T06:17:08.684Z,38.09
2019-05-15T06:18:13.759Z,37.93
2019-05-15T06:19:19.384Z,37.70
2019-05-15T06:20:24.394Z,37.48
2019-05-15T06:21:29.850Z,37.33
2019-05-15T06:22:35.114Z,37.07
2019-05-15T06:23:45.616Z,36.89
2019-05-15T06:24:48.491Z,36.74
2019-05-15T06:25:54.312Z,36.50
2019-05-15T06:26:59.371Z,36.33
2019-05-15T06:28:05.000Z,36.27
2019-05-15T06:29:10.318Z,36.22
2019-05-15T06:30:21.896Z,36.16
2019-05-15T06:31:22.891Z,36.09
2019-05-15T06:32:29.091Z,36.10
2019-05-15T06:33:34.041Z,36.17
2019-05-15T06:34:39.882Z,36.32
2019-05-15T06:35:45.069Z,36.52
2019-05-15T06:36:50.747Z,36.72
2019-05-15T06:37:55.914Z,36.86
2019-05-15T06:39:01.739Z,37.00
2019-05-15T06:40:08.456Z,37.10
2019-05-15T06:41:14.652Z,37.25
2019-05-15T06:42:19.579Z,37.36
2019-05-15T06:43:25.191Z,37.47
2019-05-15T06:44:30.212Z,37.39
2019-05-15T06:45:37.881Z,37.17
2019-05-15T06:46:42.444Z,36.89
2019-05-15T06:47:48.380Z,36.76
2019-05-15T06:48:53.751Z,36.73
2019-05-15T06:49:59.326Z,36.66
2019-05-15T06:51:04.470Z,36.61
2019-05-15T06:52:10.378Z,36.44
2019-05-15T06:53:15.285Z,36.42
2019-05-15T06:54:20.784Z,36.26
2019-05-15T06:55:25.760Z,36.30
2019-05-15T06:56:31.379Z,36.07
2019-05-15T06:57:36.468Z,36.05
2019-05-15T06:58:42.369Z,35.88
2019-05-15T06:59:48.406Z,35.75
2019-05-15T07:00:54.417Z,35.68
2019-05-15T07:01:59.563Z,35.58
2019-05-15T07:03:20.016Z,35.22
2019-05-15T07:04:12.024Z,34.61
2019-05-15T07:05:18.455Z,33.58
2019-05-15T07:06:23.870Z,33.30
2019-05-15T07:07:29.423Z,32.98
2019-05-15T07:08:34.880Z,32.73
2019-05-15T07:09:40.373Z,32.65
2019-05-15T07:10:45.574Z,32.50
2019-05-15T07:11:51.179Z,32.44
2019-05-15T07:12:58.371Z,32.33
2019-05-15T07:18:32.907Z,32.00
2019-05-15T07:19:39.367Z,32.23
2019-05-15T07:20:48.605Z,32.34
2019-05-15T07:21:53.310Z,32.44
2019-05-15T07:22:58.734Z,32.47
2019-05-15T07:24:04.737Z,32.56
2019-05-15T07:25:10.444Z,32.48
2019-05-15T07:26:18.159Z,32.52
2019-05-15T07:27:22.687Z,32.60
2019-05-15T07:28:29.638Z,32.67
2019-05-15T07:29:38.408Z,32.70
2019-05-15T07:30:43.694Z,32.57
2019-05-15T07:31:48.667Z,32.57
2019-05-15T07:32:54.197Z,32.50
2019-05-15T07:34:00.002Z,32.46
2019-05-15T07:35:08.461Z,32.39
2019-05-15T07:36:13.584Z,32.45
2019-05-15T07:37:19.226Z,32.58
2019-05-15T07:38:24.093Z,32.59
2019-05-15T07:39:29.761Z,32.51
2019-05-15T07:40:34.643Z,32.52
2019-05-15T07:41:40.635Z,32.48
2019-05-15T07:42:48.784Z,32.35
2019-05-15T07:43:53.201Z,32.15
2019-05-15T07:44:59.559Z,32.06
2019-05-15T07:46:08.099Z,31.83
2019-05-15T07:47:11.957Z,31.52
2019-05-15T07:48:18.878Z,31.30
2019-05-15T07:49:24.053Z,31.27
2019-05-15T07:50:30.019Z,30.80
2019-05-15T07:51:34.946Z,30.55
2019-05-15T07:52:41.252Z,30.63
2019-05-15T07:53:48.727Z,30.63
2019-05-15T07:54:55.267Z,30.79
2019-05-15T07:56:01.629Z,30.72
2019-05-15T07:57:08.943Z,30.74
2019-05-15T07:58:14.141Z,30.86
2019-05-15T07:59:19.687Z,30.91
2019-05-15T08:00:25.351Z,30.87
2019-05-15T08:01:30.918Z,30.87
2019-05-15T08:02:37.909Z,30.90
2019-05-15T08:03:56.556Z,30.95
2019-05-15T08:04:49.857Z,30.93
2019-05-15T08:06:02.690Z,30.88
2019-05-15T08:07:03.990Z,30.78
2019-05-15T08:08:09.694Z,30.71
2019-05-15T08:09:14.752Z,30.63
2019-05-15T08:10:22.280Z,30.63
2019-05-15T08:11:28.498Z,30.41
2019-05-15T08:12:34.246Z,30.23
2019-05-15T08:13:39.715Z,29.98
2019-05-15T08:14:47.435Z,29.79
2019-05-15T08:15:53.275Z,29.58
2019-05-15T08:16:59.374Z,29.35
2019-05-15T08:18:09.099Z,29.30
2019-05-15T08:19:11.843Z,29.31
2019-05-15T08:20:18.358Z,29.45
2019-05-15T08:21:24.003Z,29.57
2019-05-15T08:22:29.390Z,29.69
2019-05-15T08:23:34.930Z,29.75
2019-05-15T08:24:39.818Z,29.72
2019-05-15T08:25:48.522Z,29.78
2019-05-15T08:26:53.625Z,29.71
2019-05-15T08:27:59.552Z,29.54
2019-05-15T08:29:04.652Z,29.47
2019-05-15T08:30:12.179Z,29.58
2019-05-15T08:31:18.793Z,29.54
2019-05-15T08:32:24.443Z,29.67
2019-05-15T08:33:29.513Z,29.66
2019-05-15T08:34:34.970Z,29.51
2019-05-15T08:35:44.451Z,29.45
2019-05-15T08:36:48.240Z,29.45
2019-05-15T08:37:53.423Z,29.46
2019-05-15T08:38:59.202Z,29.42
2019-05-15T08:40:04.868Z,29.44
2019-05-15T08:41:11.530Z,29.55
2019-05-15T08:42:18.899Z,29.60
2019-05-15T08:43:24.036Z,29.68
2019-05-15T08:44:29.585Z,29.64
2019-05-15T08:45:35.298Z,29.66
2019-05-15T08:46:40.695Z,29.63
2019-05-15T08:47:48.966Z,29.58
2019-05-15T08:48:52.905Z,29.53
2019-05-15T08:49:58.512Z,29.45
2019-05-15T08:51:03.447Z,29.45
2019-05-15T08:52:10.333Z,29.47
2019-05-15T08:53:15.516Z,29.48
2019-05-15T08:54:21.193Z,29.54
2019-05-15T08:55:28.052Z,29.36
2019-05-15T08:56:33.351Z,29.16
2019-05-15T08:57:38.564Z,29.11
2019-05-15T08:58:44.344Z,29.12
2019-05-15T08:59:49.263Z,29.03
2019-05-15T09:00:54.774Z,28.90
2019-05-15T09:01:59.768Z,28.69
2019-05-15T09:03:05.533Z,28.51
2019-05-15T09:04:10.471Z,28.32
2019-05-15T09:05:18.646Z,28.11
2019-05-15T09:06:24.256Z,28.00
2019-05-15T09:07:30.187Z,27.79
2019-05-15T09:08:35.215Z,27.69
2019-05-15T09:09:40.782Z,27.23
2019-05-15T09:10:46.302Z,27.05
2019-05-15T09:11:51.853Z,26.88
2019-05-15T09:12:58.686Z,26.82
2019-05-15T09:14:04.279Z,26.74
2019-05-15T09:15:10.388Z,26.71
2019-05-15T09:16:18.353Z,26.67
2019-05-15T09:17:22.538Z,26.54
2019-05-15T09:18:28.438Z,26.58
2019-05-15T09:19:33.638Z,26.68
2019-05-15T09:20:39.713Z,26.77
2019-05-15T09:21:44.958Z,26.84
2019-05-15T09:22:50.830Z,26.88
2019-05-15T09:23:58.694Z,26.87
2019-05-15T09:25:03.640Z,26.90
2019-05-15T09:26:09.399Z,26.95
2019-05-15T09:27:15.315Z,27.01
2019-05-15T09:28:20.245Z,26.91
2019-05-15T09:29:25.733Z,26.94
2019-05-15T09:30:30.739Z,26.96
2019-05-15T09:31:36.229Z,26.95
2019-05-15T09:32:41.220Z,26.94
2019-05-15T09:33:49.324Z,26.79
2019-05-15T09:34:55.554Z,26.87
2019-05-15T09:36:01.363Z,27.03
2019-05-15T09:37:08.443Z,27.15
2019-05-15T09:38:13.909Z,27.20
2019-05-15T09:39:19.528Z,27.24
2019-05-15T09:40:41.737Z,27.23
2019-05-15T09:41:31.817Z,27.28
2019-05-15T09:42:38.866Z,27.27
2019-05-15T09:43:44.206Z,27.25
2019-05-15T09:44:50.026Z,27.23
2019-05-15T09:45:55.034Z,27.27
2019-05-15T09:47:00.937Z,27.29
2019-05-15T09:48:09.494Z,27.34
2019-05-15T09:49:13.272Z,27.32
2019-05-15T09:50:19.522Z,27.33
2019-05-15T09:51:25.069Z,27.34
2019-05-15T09:52:30.288Z,27.36
2019-05-15T09:53:39.084Z,27.39
2019-05-15T09:54:43.417Z,27.39
2019-05-15T09:55:49.790Z,27.47
2019-05-15T09:56:55.546Z,27.60
2019-05-15T09:58:01.309Z,27.68
2019-05-15T09:59:08.851Z,27.70
2019-05-15T10:00:14.823Z,27.87
2019-05-15T10:01:20.007Z,28.04
2019-05-15T10:02:28.248Z,28.09
2019-05-15T10:03:32.309Z,28.07
2019-05-15T10:04:39.038Z,28.07
2019-05-15T10:05:44.996Z,28.20
2019-05-15T10:06:50.711Z,28.40
2019-05-15T10:07:55.619Z,28.65
2019-05-15T10:09:01.118Z,28.92
2019-05-15T10:10:08.733Z,29.12
2019-05-15T10:11:14.155Z,29.26
2019-05-15T10:12:19.136Z,29.38
2019-05-15T10:13:24.594Z,29.52
2019-05-15T10:14:29.972Z,29.61
2019-05-15T10:15:35.512Z,29.69
2019-05-15T10:16:41.161Z,29.76
2019-05-15T10:17:50.899Z,29.90
2019-05-15T10:18:53.963Z,30.00
2019-05-15T10:19:59.414Z,30.07
2019-05-15T10:21:04.481Z,30.18
2019-05-15T10:22:10.107Z,30.23
2019-05-15T10:23:19.164Z,30.32
2019-05-15T10:24:23.198Z,30.39
2019-05-15T10:25:28.247Z,30.48
2019-05-15T10:26:33.812Z,30.53
2019-05-15T10:27:39.789Z,30.56
2019-05-15T10:28:45.529Z,30.55
2019-05-15T10:29:50.779Z,30.60
2019-05-15T10:30:56.306Z,30.71
2019-05-15T10:32:01.643Z,30.70
2019-05-15T10:33:08.737Z,30.68
2019-05-15T10:34:13.763Z,30.66
2019-05-15T10:35:28.283Z,30.79
2019-05-15T10:36:28.028Z,30.83
2019-05-15T10:37:34.065Z,30.87
2019-05-15T10:38:39.377Z,30.95
2019-05-15T10:39:45.199Z,31.01
2019-05-15T10:41:03.703Z,31.01
2019-05-15T10:41:57.785Z,31.03
2019-05-15T10:43:02.872Z,31.15
2019-05-15T10:44:09.320Z,31.28
2019-05-15T10:45:15.042Z,31.34
2019-05-15T10:46:20.889Z,31.38
2019-05-15T10:47:25.827Z,31.38
2019-05-15T10:48:31.830Z,31.33
2019-05-15T10:49:39.012Z,31.31
2019-05-15T10:50:44.421Z,31.32
2019-05-15T10:51:49.786Z,31.32
2019-05-15T10:52:55.399Z,31.25
2019-05-15T10:54:00.875Z,31.29
2019-05-15T10:55:09.242Z,31.38
2019-05-15T10:56:14.109Z,31.42
2019-05-15T10:57:22.883Z,31.45
2019-05-15T10:58:28.571Z,31.45
2019-05-15T10:59:34.336Z,31.55
2019-05-15T11:00:39.401Z,31.57
2019-05-15T11:01:44.945Z,31.55
2019-05-15T11:02:50.199Z,31.57
2019-05-15T11:03:55.667Z,31.51
2019-05-15T11:05:00.768Z,31.49
2019-05-15T11:06:08.870Z,31.53
2019-05-15T11:07:13.025Z,31.55
2019-05-15T11:08:19.109Z,31.50
2019-05-15T11:09:24.180Z,31.50
2019-05-15T11:10:29.907Z,31.50
2019-05-15T11:11:35.089Z,31.55
2019-05-15T11:12:40.818Z,31.57
2019-05-15T11:13:45.734Z,31.56
2019-05-15T11:14:51.835Z,31.51
2019-05-15T11:15:57.151Z,31.50
2019-05-15T11:17:02.717Z,31.37
2019-05-15T11:18:09.252Z,31.32
2019-05-15T11:19:15.278Z,31.29
2019-05-15T11:20:20.525Z,31.22
2019-05-15T11:21:26.170Z,31.25
2019-05-15T11:22:31.310Z,31.25
2019-05-15T11:23:39.536Z,31.20
2019-05-15T11:24:43.582Z,31.09
2019-05-15T11:25:49.467Z,31.10
2019-05-15T11:26:56.241Z,31.20
2019-05-15T11:28:02.012Z,31.28
2019-05-15T11:29:09.604Z,31.38
2019-05-15T11:30:14.925Z,31.26
2019-05-15T11:31:20.380Z,30.94
2019-05-15T11:32:25.978Z,30.73
2019-05-15T11:33:30.915Z,30.52
2019-05-15T11:34:38.287Z,30.44
2019-05-15T11:35:56.801Z,30.37
2019-05-15T11:36:50.622Z,30.22
2019-05-15T11:37:57.318Z,29.96
2019-05-15T11:39:02.739Z,29.77
2019-05-15T11:40:10.032Z,29.80
2019-05-15T11:41:18.424Z,29.92
2019-05-15T11:42:22.133Z,30.04
2019-05-15T11:43:29.155Z,30.25
2019-05-15T11:44:34.896Z,30.38
2019-05-15T11:45:40.531Z,30.52
2019-05-15T11:46:45.835Z,30.66
2019-05-15T11:47:51.818Z,30.72
2019-05-15T11:48:58.805Z,30.61
2019-05-15T11:50:04.268Z,30.38
2019-05-15T11:51:09.932Z,30.11
2019-05-15T11:52:18.602Z,29.88
2019-05-15T11:53:22.463Z,29.80
2019-05-15T11:54:28.420Z,29.83
2019-05-15T11:55:34.070Z,29.80
2019-05-15T11:56:39.539Z,29.81
2019-05-15T11:57:47.516Z,29.86
2019-05-15T11:58:51.764Z,29.97
2019-05-15T11:59:59.613Z,30.09
2019-05-15T12:01:04.087Z,30.21
2019-05-15T12:02:09.008Z,30.21
2019-05-15T12:03:14.743Z,30.29
2019-05-15T12:04:30.435Z,30.40
2019-05-15T12:05:28.797Z,30.37
2019-05-15T12:06:34.111Z,30.30
2019-05-15T12:07:39.725Z,30.27
2019-05-15T12:08:44.791Z,30.23
2019-05-15T12:09:50.479Z,30.21
2019-05-15T12:10:58.834Z,30.20
2019-05-15T12:12:02.977Z,29.95
2019-05-15T12:13:09.793Z,29.80
2019-05-15T12:14:18.613Z,29.74
2019-05-15T12:15:22.396Z,29.69
2019-05-15T12:16:28.979Z,29.70
2019-05-15T12:17:34.353Z,29.72
2019-05-15T12:18:39.961Z,29.67
2019-05-15T12:19:54.936Z,29.38
2019-05-15T12:20:52.140Z,29.10
2019-05-15T12:21:59.781Z,28.87
2019-05-15T12:23:04.646Z,28.80
2019-05-15T12:24:09.678Z,28.87
2019-05-15T12:25:15.596Z,29.02
2019-05-15T12:26:20.790Z,29.20
2019-05-15T12:27:28.272Z,29.33
2019-05-15T12:28:33.617Z,29.37
2019-05-15T12:29:39.985Z,29.17
2019-05-15T12:30:45.236Z,29.01
2019-05-15T12:31:50.946Z,28.89
2019-05-15T12:32:55.875Z,28.75
2019-05-15T12:34:01.411Z,28.40
2019-05-15T12:35:06.722Z,28.09
2019-05-15T12:36:12.336Z,28.08
2019-05-15T12:37:19.035Z,28.08
2019-05-15T12:38:24.507Z,28.15
2019-05-15T12:39:30.563Z,28.21
2019-05-15T13:00:42.922Z,28.24
2019-05-15T13:01:47.938Z,28.30
2019-05-15T13:02:53.453Z,28.37
2019-05-15T13:03:58.391Z,28.38
2019-05-15T13:05:03.973Z,28.34
2019-05-15T13:06:08.953Z,28.33
2019-05-15T13:07:16.862Z,28.32
2019-05-15T13:08:21.690Z,28.24
2019-05-15T13:09:27.768Z,28.20
2019-05-15T13:10:32.835Z,28.23
2019-05-15T13:11:38.450Z,28.09
2019-05-15T13:12:59.148Z,28.07
2019-05-15T13:13:50.632Z,28.02
2019-05-15T13:14:59.081Z,28.01
2019-05-15T13:16:04.942Z,27.99
2019-05-15T13:17:10.084Z,27.96
2019-05-15T13:18:17.858Z,28.03
2019-05-15T13:19:22.655Z,28.06
2019-05-15T13:20:28.890Z,28.08
2019-05-15T13:21:34.340Z,28.10
2019-05-15T13:22:39.811Z,28.16
2019-05-15T13:23:44.970Z,28.04
2019-05-15T13:24:50.560Z,28.03
2019-05-15T13:25:55.817Z,28.10
2019-05-15T13:27:01.279Z,28.05
2019-05-15T13:28:08.582Z,28.10
2019-05-15T13:29:13.694Z,28.18
2019-05-15T13:30:19.722Z,28.25
2019-05-15T13:31:25.348Z,28.28
2019-05-15T13:32:30.251Z,28.19
2019-05-15T13:33:35.845Z,28.15
2019-05-15T13:34:40.769Z,28.11
2019-05-15T13:35:48.486Z,28.14
2019-05-15T13:36:54.109Z,28.15
2019-05-15T13:37:59.775Z,28.05
2019-05-15T13:39:06.414Z,27.97
2019-05-15T13:40:12.605Z,28.05
2019-05-15T13:41:19.026Z,28.14
2019-05-15T13:42:27.998Z,28.29
2019-05-15T13:43:32.735Z,28.36
2019-05-15T13:44:38.787Z,28.44
2019-05-15T13:45:43.741Z,28.54
2019-05-15T13:46:49.216Z,28.46
2019-05-15T13:47:54.796Z,28.32
2019-05-15T13:49:00.421Z,28.25
2019-05-15T13:50:07.867Z,28.24
2019-05-15T13:51:13.225Z,28.33
2019-05-15T13:52:18.818Z,28.32
2019-05-15T13:53:24.425Z,28.36
2019-05-15T13:54:29.830Z,28.27
2019-05-15T13:55:37.941Z,28.26
2019-05-15T13:56:42.827Z,28.34
2019-05-15T13:57:48.772Z,28.35
2019-05-15T13:58:53.902Z,28.42
2019-05-15T13:59:59.411Z,28.50
2019-05-15T14:01:05.021Z,28.51
2019-05-15T14:02:10.580Z,28.49
2019-05-15T14:03:15.676Z,28.43
2019-05-15T14:04:21.207Z,28.53
2019-05-15T14:05:29.457Z,28.52
2019-05-15T14:06:33.339Z,28.37
2019-05-15T14:07:49.014Z,28.38
2019-05-15T14:08:48.531Z,28.13
2019-05-15T14:09:53.050Z,28.10
2019-05-15T14:10:58.642Z,28.21
2019-05-15T14:12:03.883Z,28.23
2019-05-15T14:13:13.651Z,28.24
2019-05-15T14:14:19.855Z,28.15
2019-05-15T14:15:25.385Z,28.12
2019-05-15T14:16:31.026Z,28.13
2019-05-15T14:17:37.659Z,28.04
2019-05-15T14:18:42.955Z,28.02
2019-05-15T14:19:48.757Z,28.06
2019-05-15T14:20:54.437Z,28.13
2019-05-15T14:21:59.991Z,28.21
2019-05-15T14:23:05.039Z,28.01
2019-05-15T14:24:10.638Z,27.91
2019-05-15T14:25:18.109Z,27.88
2019-05-15T14:26:23.885Z,27.86
2019-05-15T14:27:29.362Z,27.85
2019-05-15T14:28:35.586Z,27.89
2019-05-15T14:29:41.008Z,27.90
2019-05-15T14:30:46.779Z,27.96
2019-05-15T14:31:51.713Z,28.05
2019-05-15T14:32:59.874Z,28.06
2019-05-15T14:34:04.079Z,27.86
2019-05-15T14:35:10.824Z,27.67